createdAt,value
2022-12-06T00:00:29.493Z,0
2022-12-06T00:01:45.787Z,0
2022-12-06T00:03:02.096Z,0
2022-12-06T00:04:18.380Z,0
2022-12-06T00:05:34.684Z,0
2022-12-06T00:06:50.964Z,0
2022-12-06T00:08:06.276Z,0
2022-12-06T00:09:22.570Z,0
2022-12-06T00:10:38.874Z,0
2022-12-06T00:11:55.162Z,0
2022-12-06T00:13:11.458Z,0
2022-12-06T00:14:27.742Z,0
2022-12-06T00:15:44.051Z,0
2022-12-06T00:17:00.349Z,0
2022-12-06T00:18:16.631Z,0
2022-12-06T00:19:32.916Z,0
2022-12-06T00:20:49.227Z,0
2022-12-06T00:22:05.510Z,0
2022-12-06T00:23:21.800Z,0
2022-12-06T00:24:37.115Z,0
2022-12-06T00:25:53.406Z,0
2022-12-06T00:27:09.709Z,0
2022-12-06T00:28:25.993Z,0
2022-12-06T00:29:42.298Z,0
2022-12-06T00:30:58.578Z,0
2022-12-06T00:32:14.875Z,0
2022-12-06T00:33:31.166Z,0
2022-12-06T00:34:47.461Z,0
2022-12-06T00:36:03.754Z,0
2022-12-06T00:37:20.050Z,0
2022-12-06T00:38:36.347Z,0
2022-12-06T00:39:52.642Z,0
2022-12-06T00:41:07.945Z,0
2022-12-06T00:42:24.243Z,0
2022-12-06T00:43:40.540Z,0
2022-12-06T00:44:56.832Z,0
2022-12-06T00:46:13.134Z,0
2022-12-06T00:47:29.429Z,0
2022-12-06T00:48:45.711Z,0
2022-12-06T00:50:02.011Z,0
2022-12-06T00:51:18.300Z,0
2022-12-06T00:52:34.598Z,0
2022-12-06T00:53:50.887Z,0
2022-12-06T00:55:07.185Z,0
2022-12-06T00:56:23.478Z,0
2022-12-06T00:57:38.780Z,0
2022-12-06T00:58:55.077Z,0
2022-12-06T01:00:11.367Z,0
2022-12-06T01:01:27.663Z,0
2022-12-06T01:02:43.957Z,0
2022-12-06T01:04:00.260Z,0
2022-12-06T01:05:16.549Z,0
2022-12-06T01:06:32.841Z,0
2022-12-06T01:07:49.138Z,0
2022-12-06T01:09:05.430Z,0
2022-12-06T01:10:21.720Z,0
2022-12-06T01:11:38.018Z,0
2022-12-06T01:12:54.306Z,0
2022-12-06T01:14:09.629Z,0
2022-12-06T01:15:25.919Z,0
2022-12-06T01:16:42.210Z,0
2022-12-06T01:17:58.517Z,0
2022-12-06T01:19:14.798Z,0
2022-12-06T01:20:31.091Z,0
2022-12-06T01:21:47.386Z,0
2022-12-06T01:23:03.684Z,0
2022-12-06T01:24:19.971Z,0
2022-12-06T01:25:36.276Z,0
2022-12-06T01:26:52.572Z,0
2022-12-06T01:28:08.858Z,0
2022-12-06T01:29:25.146Z,0
2022-12-06T01:30:41.556Z,0
2022-12-06T01:31:57.868Z,0
2022-12-06T01:33:14.163Z,0
2022-12-06T01:34:30.436Z,0
2022-12-06T01:35:46.739Z,0
2022-12-06T01:37:03.039Z,0
2022-12-06T01:38:19.328Z,0
2022-12-06T01:39:35.617Z,0
2022-12-06T01:40:51.912Z,0
2022-12-06T01:42:08.213Z,0
2022-12-06T01:43:24.503Z,0
2022-12-06T01:44:40.789Z,0
2022-12-06T01:45:57.097Z,0
2022-12-06T01:47:12.398Z,0
2022-12-06T01:48:28.691Z,0
2022-12-06T01:49:44.990Z,0
2022-12-06T01:51:01.275Z,0
2022-12-06T01:52:17.578Z,0
2022-12-06T01:53:33.870Z,0
2022-12-06T01:54:50.167Z,0
2022-12-06T01:56:06.459Z,0
2022-12-06T01:57:22.752Z,0
2022-12-06T01:58:39.041Z,0
2022-12-06T01:59:55.340Z,0
2022-12-06T02:01:11.629Z,0
2022-12-06T02:02:27.929Z,0
2022-12-06T02:03:43.236Z,0
2022-12-06T02:04:59.537Z,0
2022-12-06T02:06:15.818Z,0
2022-12-06T02:07:32.111Z,0
2022-12-06T02:08:48.408Z,0
2022-12-06T02:10:04.706Z,0
2022-12-06T02:11:20.996Z,0
2022-12-06T02:12:37.301Z,0
2022-12-06T02:13:53.597Z,0
2022-12-06T02:15:09.889Z,0
2022-12-06T02:16:26.172Z,0
2022-12-06T02:17:42.474Z,0
2022-12-06T02:18:58.759Z,0
2022-12-06T02:20:14.071Z,0
2022-12-06T02:21:30.373Z,0
2022-12-06T02:22:46.650Z,0
2022-12-06T02:24:02.955Z,0
2022-12-06T02:25:19.252Z,0
2022-12-06T02:27:51.843Z,0
2022-12-06T02:29:07.153Z,0
2022-12-06T02:30:23.446Z,0
2022-12-06T02:31:39.737Z,0
2022-12-06T02:32:56.044Z,0
2022-12-06T02:34:12.323Z,0
2022-12-06T02:35:28.623Z,0
2022-12-06T02:36:44.912Z,0
2022-12-06T02:38:01.202Z,0
2022-12-06T02:39:17.493Z,0
2022-12-06T02:40:33.796Z,0
2022-12-06T02:41:50.090Z,0
2022-12-06T02:43:06.383Z,0
2022-12-06T02:44:22.676Z,0
2022-12-06T02:45:37.993Z,0
2022-12-06T02:46:54.287Z,0
2022-12-06T02:48:10.567Z,0
2022-12-06T02:49:26.879Z,0
2022-12-06T02:50:43.164Z,0
2022-12-06T02:51:59.463Z,0
2022-12-06T02:53:15.744Z,0
2022-12-06T02:54:32.039Z,0
2022-12-06T02:55:48.342Z,0
2022-12-06T02:57:04.632Z,0
2022-12-06T02:58:20.928Z,0
2022-12-06T02:59:37.214Z,0
2022-12-06T03:00:53.525Z,0
2022-12-06T03:02:08.823Z,0
2022-12-06T03:03:25.117Z,0
2022-12-06T03:04:41.420Z,0
2022-12-06T03:05:57.713Z,0
2022-12-06T03:07:13.997Z,0
2022-12-06T03:08:30.299Z,0
2022-12-06T03:09:46.587Z,0
2022-12-06T03:11:02.882Z,0
2022-12-06T03:12:19.171Z,0
2022-12-06T03:13:35.479Z,0
2022-12-06T03:14:51.756Z,0
2022-12-06T03:16:08.048Z,0
2022-12-06T03:17:24.355Z,0
2022-12-06T03:18:39.659Z,0
2022-12-06T03:19:55.964Z,0
2022-12-06T03:21:12.260Z,0
2022-12-06T03:22:28.555Z,0
2022-12-06T03:23:44.836Z,0
2022-12-06T03:25:01.133Z,0
2022-12-06T03:26:17.436Z,0
2022-12-06T03:27:33.717Z,0
2022-12-06T03:28:50.009Z,0
2022-12-06T03:30:06.309Z,0
2022-12-06T03:31:22.601Z,0
2022-12-06T03:32:38.898Z,0
2022-12-06T03:33:55.181Z,0
2022-12-06T03:35:10.507Z,0
2022-12-06T03:36:26.000Z,0
2022-12-06T03:37:43.088Z,0
2022-12-06T03:38:59.384Z,0
2022-12-06T03:40:15.666Z,0
2022-12-06T03:41:31.963Z,0
2022-12-06T03:42:48.273Z,0
2022-12-06T03:44:04.561Z,0
2022-12-06T03:45:20.851Z,0
2022-12-06T03:46:37.151Z,0
2022-12-06T03:47:53.440Z,0
2022-12-06T03:49:09.733Z,0
2022-12-06T03:50:26.022Z,0
2022-12-06T03:51:41.335Z,0
2022-12-06T03:52:57.626Z,0
2022-12-06T03:54:13.926Z,0
2022-12-06T03:55:30.220Z,0
2022-12-06T03:56:46.515Z,0
2022-12-06T03:58:02.802Z,0
2022-12-06T03:59:19.097Z,0
2022-12-06T04:00:35.403Z,0
2022-12-06T04:01:51.689Z,0
2022-12-06T04:03:07.984Z,0
2022-12-06T04:04:24.282Z,0
2022-12-06T04:05:40.572Z,0
2022-12-06T04:06:56.861Z,0
2022-12-06T04:08:12.173Z,0
2022-12-06T04:09:28.484Z,0
2022-12-06T04:10:44.765Z,0
2022-12-06T04:12:01.067Z,0
2022-12-06T04:13:17.360Z,0
2022-12-06T04:14:33.655Z,0
2022-12-06T04:15:49.930Z,0
2022-12-06T04:17:06.243Z,0
2022-12-06T04:18:22.518Z,0
2022-12-06T04:19:38.820Z,0
2022-12-06T04:20:55.116Z,0
2022-12-06T04:22:11.419Z,0
2022-12-06T04:23:27.705Z,0
2022-12-06T04:24:43.031Z,0
2022-12-06T04:25:59.300Z,0
2022-12-06T04:27:15.601Z,0
2022-12-06T04:28:31.899Z,0
2022-12-06T04:29:48.195Z,0
2022-12-06T04:31:04.489Z,0
2022-12-06T04:32:20.768Z,0
2022-12-06T04:33:37.075Z,0
2022-12-06T04:34:53.374Z,0
2022-12-06T04:36:09.665Z,0
2022-12-06T04:37:25.962Z,0
2022-12-06T04:38:42.250Z,0
2022-12-06T04:39:58.547Z,0
2022-12-06T04:41:13.857Z,0
2022-12-06T04:42:30.145Z,0
2022-12-06T04:43:46.451Z,0
2022-12-06T04:45:02.727Z,0
2022-12-06T04:46:19.025Z,0
2022-12-06T04:47:35.317Z,0
2022-12-06T04:48:51.623Z,0
2022-12-06T04:50:07.912Z,0
2022-12-06T04:51:24.222Z,0
2022-12-06T04:52:40.515Z,0
2022-12-06T04:53:56.795Z,0
2022-12-06T04:55:13.082Z,0
2022-12-06T04:56:29.382Z,0
2022-12-06T04:57:44.696Z,0
2022-12-06T04:59:01.004Z,0
2022-12-06T05:00:17.279Z,0
2022-12-06T05:01:33.572Z,0
2022-12-06T05:02:49.866Z,0
2022-12-06T05:04:06.152Z,0
2022-12-06T05:05:22.455Z,0
2022-12-06T05:06:38.757Z,0
2022-12-06T05:07:55.054Z,0
2022-12-06T05:09:11.329Z,0
2022-12-06T05:10:27.628Z,0
2022-12-06T05:11:43.931Z,0
2022-12-06T05:13:00.221Z,0
2022-12-06T05:14:15.521Z,0
2022-12-06T05:15:31.818Z,0
2022-12-06T05:16:48.121Z,0
2022-12-06T05:18:04.405Z,0
2022-12-06T05:19:20.702Z,0
2022-12-06T05:20:37.003Z,0
2022-12-06T05:21:53.297Z,0
2022-12-06T05:23:09.604Z,0
2022-12-06T05:24:25.876Z,0
2022-12-06T05:25:42.179Z,0
2022-12-06T05:26:58.472Z,0
2022-12-06T05:28:14.761Z,0
2022-12-06T05:29:31.048Z,0
2022-12-06T05:30:46.363Z,0
2022-12-06T05:32:02.661Z,0
2022-12-06T05:33:18.946Z,0
2022-12-06T05:34:35.251Z,0
2022-12-06T05:35:51.543Z,0
2022-12-06T05:37:07.844Z,0
2022-12-06T05:38:24.134Z,0
2022-12-06T05:39:40.432Z,0
2022-12-06T05:40:56.736Z,0
2022-12-06T05:42:13.004Z,0
2022-12-06T05:43:29.302Z,0
2022-12-06T05:44:45.610Z,0
2022-12-06T05:46:01.885Z,0
2022-12-06T05:47:17.207Z,0
2022-12-06T05:48:33.502Z,0
2022-12-06T05:49:49.800Z,0
2022-12-06T05:51:06.094Z,0
2022-12-06T05:52:22.386Z,0
2022-12-06T05:53:38.671Z,0
2022-12-06T05:54:54.984Z,0
2022-12-06T05:56:11.267Z,0
2022-12-06T05:57:27.553Z,0
2022-12-06T05:58:43.862Z,0
2022-12-06T06:00:00.156Z,0
2022-12-06T06:01:16.452Z,0
2022-12-06T06:02:32.737Z,0
2022-12-06T06:03:48.053Z,0
2022-12-06T06:05:04.337Z,0
2022-12-06T06:06:20.643Z,0
2022-12-06T06:07:36.920Z,0
2022-12-06T06:08:53.215Z,0
2022-12-06T06:10:09.519Z,0
2022-12-06T06:11:25.815Z,0
2022-12-06T06:12:42.102Z,0
2022-12-06T06:13:58.394Z,0
2022-12-06T06:15:14.699Z,0
2022-12-06T06:16:30.984Z,0
2022-12-06T06:17:47.280Z,0
2022-12-06T06:19:03.578Z,0
2022-12-06T06:20:18.895Z,0
2022-12-06T06:21:35.191Z,0
2022-12-06T06:22:51.479Z,0
2022-12-06T06:24:07.773Z,0
2022-12-06T06:25:24.059Z,0
2022-12-06T06:26:40.310Z,0
2022-12-06T06:27:56.597Z,0
2022-12-06T06:29:12.852Z,0
2022-12-06T06:30:29.091Z,0
2022-12-06T06:31:45.330Z,0
2022-12-06T06:33:01.558Z,0
2022-12-06T06:34:17.814Z,0
2022-12-06T06:35:34.041Z,0
2022-12-06T06:36:49.361Z,0
2022-12-06T06:38:05.608Z,0
2022-12-06T06:39:21.848Z,0
2022-12-06T06:40:38.083Z,0
2022-12-06T06:41:54.337Z,0
2022-12-06T06:43:10.587Z,0
2022-12-06T06:44:25.832Z,0
2022-12-06T06:45:42.068Z,0
2022-12-06T06:46:58.311Z,0
2022-12-06T06:48:14.543Z,0
2022-12-06T06:49:30.800Z,0
2022-12-06T06:50:47.035Z,0
2022-12-06T06:52:03.270Z,0
2022-12-06T06:53:19.527Z,0
2022-12-06T06:54:35.755Z,0
2022-12-06T06:55:51.990Z,0
2022-12-06T06:57:08.242Z,0
2022-12-06T06:58:24.466Z,0
2022-12-06T06:59:40.706Z,0
2022-12-06T07:00:55.973Z,0
2022-12-06T07:02:12.214Z,0
2022-12-06T07:03:28.442Z,0
2022-12-06T07:04:44.685Z,0
2022-12-06T07:06:00.935Z,0
2022-12-06T07:07:17.182Z,0
2022-12-06T07:08:33.425Z,0
2022-12-06T07:09:49.642Z,0
2022-12-06T07:11:05.877Z,0
2022-12-06T07:12:22.118Z,0
2022-12-06T07:13:38.362Z,0
2022-12-06T07:14:54.615Z,0
2022-12-06T07:16:10.845Z,0
2022-12-06T07:17:26.100Z,0
2022-12-06T07:18:42.344Z,0
2022-12-06T07:19:58.581Z,5
2022-12-06T07:21:14.813Z,5
2022-12-06T07:22:31.064Z,5
2022-12-06T07:23:47.321Z,5
2022-12-06T07:25:03.560Z,5
2022-12-06T07:26:19.782Z,5
2022-12-06T07:27:36.013Z,5
2022-12-06T07:28:52.267Z,11
2022-12-06T07:30:08.507Z,11
2022-12-06T07:31:24.745Z,11
2022-12-06T07:32:40.987Z,11
2022-12-06T07:33:56.235Z,11
2022-12-06T07:35:12.477Z,11
2022-12-06T07:36:28.710Z,11
2022-12-06T07:37:44.966Z,11
2022-12-06T07:39:01.208Z,11
2022-12-06T07:40:17.448Z,11
2022-12-06T07:41:33.690Z,11
2022-12-06T07:42:49.933Z,11
2022-12-06T07:44:06.162Z,11
2022-12-06T07:45:22.393Z,11
2022-12-06T07:46:38.636Z,11
2022-12-06T07:47:54.876Z,11
2022-12-06T07:49:11.112Z,11
2022-12-06T07:50:26.380Z,11
2022-12-06T07:51:42.615Z,11
2022-12-06T07:52:58.861Z,16
2022-12-06T07:54:15.109Z,16
2022-12-06T07:55:31.344Z,16
2022-12-06T07:56:47.576Z,16
2022-12-06T07:58:03.817Z,11
2022-12-06T07:59:20.064Z,16
2022-12-06T08:00:36.312Z,11
2022-12-06T08:01:52.542Z,11
2022-12-06T08:03:08.781Z,11
2022-12-06T08:04:25.008Z,11
2022-12-06T08:05:41.257Z,11
2022-12-06T08:06:56.505Z,11
2022-12-06T08:08:12.744Z,11
2022-12-06T08:09:28.997Z,11
2022-12-06T08:10:45.232Z,16
2022-12-06T08:12:01.461Z,16
2022-12-06T08:13:17.726Z,16
2022-12-06T08:14:33.954Z,16
2022-12-06T08:15:50.192Z,16
2022-12-06T08:17:06.443Z,16
2022-12-06T08:18:22.672Z,16
2022-12-06T08:19:38.911Z,11
2022-12-06T08:20:55.143Z,11
2022-12-06T08:22:11.396Z,16
2022-12-06T08:23:26.658Z,16
2022-12-06T08:24:42.890Z,16
2022-12-06T08:25:59.131Z,16
2022-12-06T08:27:15.366Z,16
2022-12-06T08:28:31.608Z,11
2022-12-06T08:29:47.844Z,11
2022-12-06T08:31:04.095Z,11
2022-12-06T08:32:20.320Z,11
2022-12-06T08:33:36.568Z,11
2022-12-06T08:34:52.806Z,16
2022-12-06T08:36:09.048Z,16
2022-12-06T08:37:25.284Z,16
2022-12-06T08:38:41.540Z,16
2022-12-06T08:39:56.779Z,16
2022-12-06T08:41:13.028Z,16
2022-12-06T08:42:29.258Z,11
2022-12-06T08:43:45.501Z,11
2022-12-06T08:45:01.753Z,11
2022-12-06T08:46:17.988Z,11
2022-12-06T08:47:34.231Z,11
2022-12-06T08:48:50.465Z,11
2022-12-06T08:50:06.707Z,16
2022-12-06T08:51:22.951Z,16
2022-12-06T08:52:39.187Z,16
2022-12-06T08:53:55.420Z,11
2022-12-06T08:55:11.673Z,11
2022-12-06T08:56:26.925Z,11
2022-12-06T08:57:43.184Z,16
2022-12-06T08:58:59.409Z,16
2022-12-06T09:00:15.645Z,16
2022-12-06T09:01:31.884Z,16
2022-12-06T09:02:48.134Z,16
2022-12-06T09:04:04.365Z,22
2022-12-06T09:05:20.606Z,22
2022-12-06T09:06:36.846Z,22
2022-12-06T09:07:53.085Z,28
2022-12-06T09:09:09.328Z,28
2022-12-06T09:10:25.579Z,28
2022-12-06T09:11:41.809Z,28
2022-12-06T09:12:57.061Z,28
2022-12-06T09:14:13.311Z,33
2022-12-06T09:15:29.541Z,33
2022-12-06T09:16:45.784Z,33
2022-12-06T09:18:02.031Z,28
2022-12-06T09:19:18.260Z,28
2022-12-06T09:20:34.500Z,28
2022-12-06T09:21:50.733Z,28
2022-12-06T09:23:06.984Z,28
2022-12-06T09:24:23.208Z,22
2022-12-06T09:25:39.473Z,22
2022-12-06T09:26:55.693Z,22
2022-12-06T09:28:11.937Z,22
2022-12-06T09:29:27.196Z,22
2022-12-06T09:30:43.444Z,22
2022-12-06T09:31:59.672Z,22
2022-12-06T09:33:15.920Z,22
2022-12-06T09:34:32.164Z,16
2022-12-06T09:35:48.411Z,22
2022-12-06T09:37:04.643Z,22
2022-12-06T09:38:20.866Z,22
2022-12-06T09:39:37.106Z,16
2022-12-06T09:40:53.362Z,16
2022-12-06T09:42:09.598Z,16
2022-12-06T09:43:25.829Z,16
2022-12-06T09:44:42.068Z,16
2022-12-06T09:45:57.323Z,16
2022-12-06T09:47:13.585Z,16
2022-12-06T09:48:29.828Z,16
2022-12-06T09:49:46.045Z,16
2022-12-06T09:51:02.307Z,16
2022-12-06T09:52:18.540Z,16
2022-12-06T09:53:34.773Z,16
2022-12-06T09:54:51.015Z,16
2022-12-06T09:56:07.268Z,16
2022-12-06T09:57:23.495Z,22
2022-12-06T09:58:39.744Z,22
2022-12-06T09:59:55.963Z,28
2022-12-06T10:01:12.206Z,28
2022-12-06T10:02:27.471Z,33
2022-12-06T10:03:43.707Z,33
2022-12-06T10:04:59.958Z,33
2022-12-06T10:06:16.191Z,33
2022-12-06T10:07:32.419Z,33
2022-12-06T10:08:48.663Z,33
2022-12-06T10:10:04.907Z,28
2022-12-06T10:11:21.153Z,28
2022-12-06T10:12:37.394Z,28
2022-12-06T10:13:53.641Z,33
2022-12-06T10:15:09.877Z,28
2022-12-06T10:16:26.118Z,28
2022-12-06T10:17:42.341Z,33
2022-12-06T10:18:57.608Z,22
2022-12-06T10:20:13.842Z,33
2022-12-06T10:21:30.085Z,33
2022-12-06T10:22:46.331Z,33
2022-12-06T10:24:02.579Z,39
2022-12-06T10:25:18.801Z,39
2022-12-06T10:26:35.043Z,39
2022-12-06T10:27:51.280Z,45
2022-12-06T10:29:07.537Z,56
2022-12-06T10:30:23.773Z,61
2022-12-06T10:31:40.013Z,61
2022-12-06T10:32:56.235Z,67
2022-12-06T10:34:12.474Z,67
2022-12-06T10:35:27.738Z,67
2022-12-06T10:36:43.985Z,61
2022-12-06T10:38:00.225Z,50
2022-12-06T10:39:16.455Z,45
2022-12-06T10:40:32.700Z,39
2022-12-06T10:41:48.942Z,33
2022-12-06T10:43:05.179Z,33
2022-12-06T10:44:21.419Z,33
2022-12-06T10:45:37.679Z,33
2022-12-06T10:46:53.917Z,39
2022-12-06T10:48:10.141Z,39
2022-12-06T10:49:26.374Z,39
2022-12-06T10:50:42.627Z,39
2022-12-06T10:51:57.894Z,50
2022-12-06T10:53:14.126Z,67
2022-12-06T10:54:30.362Z,67
2022-12-06T10:55:46.596Z,56
2022-12-06T10:57:02.840Z,50
2022-12-06T10:58:19.079Z,45
2022-12-06T10:59:34.329Z,39
2022-12-06T11:00:50.592Z,45
2022-12-06T11:02:06.823Z,39
2022-12-06T11:03:23.056Z,33
2022-12-06T11:04:39.298Z,39
2022-12-06T11:05:55.530Z,33
2022-12-06T11:07:11.770Z,33
2022-12-06T11:08:28.025Z,33
2022-12-06T11:09:44.262Z,33
2022-12-06T11:11:00.497Z,33
2022-12-06T11:12:16.749Z,39
2022-12-06T11:13:32.979Z,39
2022-12-06T11:14:49.206Z,39
2022-12-06T11:16:04.475Z,45
2022-12-06T11:17:20.708Z,50
2022-12-06T11:18:36.943Z,45
2022-12-06T11:19:53.210Z,39
2022-12-06T11:21:09.435Z,39
2022-12-06T11:22:25.679Z,39
2022-12-06T11:23:41.930Z,33
2022-12-06T11:24:58.162Z,39
2022-12-06T11:26:14.400Z,33
2022-12-06T11:27:30.628Z,33
2022-12-06T11:28:46.874Z,33
2022-12-06T11:30:03.105Z,28
2022-12-06T11:31:19.361Z,28
2022-12-06T11:32:34.601Z,33
2022-12-06T11:33:50.839Z,33
2022-12-06T11:35:07.098Z,39
2022-12-06T11:36:23.329Z,33
2022-12-06T11:37:39.575Z,33
2022-12-06T11:38:55.813Z,39
2022-12-06T11:40:12.056Z,39
2022-12-06T11:41:28.280Z,39
2022-12-06T11:42:44.518Z,45
2022-12-06T11:44:00.763Z,45
2022-12-06T11:45:17.008Z,45
2022-12-06T11:46:33.270Z,39
2022-12-06T11:47:49.480Z,39
2022-12-06T11:49:04.765Z,45
2022-12-06T11:50:21.006Z,45
2022-12-06T11:51:37.228Z,39
2022-12-06T11:52:53.470Z,39
2022-12-06T11:54:09.712Z,33
2022-12-06T11:55:25.946Z,33
2022-12-06T11:56:42.206Z,33
2022-12-06T11:57:58.430Z,39
2022-12-06T11:59:14.657Z,39
2022-12-06T12:00:30.915Z,33
2022-12-06T12:01:47.154Z,33
2022-12-06T12:03:03.404Z,39
2022-12-06T12:04:19.620Z,39
2022-12-06T12:05:34.897Z,50
2022-12-06T12:06:51.119Z,45
2022-12-06T12:08:07.373Z,39
2022-12-06T12:09:23.594Z,45
2022-12-06T12:10:39.840Z,45
2022-12-06T12:11:56.075Z,39
2022-12-06T12:13:12.340Z,39
2022-12-06T12:14:28.566Z,33
2022-12-06T12:15:44.793Z,33
2022-12-06T12:17:01.033Z,33
2022-12-06T12:18:17.289Z,28
2022-12-06T12:19:33.537Z,33
2022-12-06T12:20:49.770Z,28
2022-12-06T12:22:05.017Z,28
2022-12-06T12:23:21.265Z,28
2022-12-06T12:24:37.511Z,28
2022-12-06T12:25:53.747Z,28
2022-12-06T12:27:09.984Z,33
2022-12-06T12:28:26.242Z,33
2022-12-06T12:29:42.457Z,28
2022-12-06T12:30:58.699Z,28
2022-12-06T12:32:14.938Z,28
2022-12-06T12:33:31.182Z,28
2022-12-06T12:34:47.430Z,22
2022-12-06T12:36:03.666Z,28
2022-12-06T12:37:19.895Z,33
2022-12-06T12:38:35.168Z,28
2022-12-06T12:39:51.387Z,28
2022-12-06T12:41:07.631Z,33
2022-12-06T12:42:23.866Z,28
2022-12-06T12:43:40.117Z,33
2022-12-06T12:44:56.350Z,28
2022-12-06T12:46:12.602Z,28
2022-12-06T12:47:28.840Z,33
2022-12-06T12:48:45.081Z,28
2022-12-06T12:50:01.320Z,28
2022-12-06T12:51:17.564Z,28
2022-12-06T12:52:33.787Z,28
2022-12-06T12:53:50.028Z,22
2022-12-06T12:55:10.190Z,22
2022-12-06T12:56:22.496Z,28
2022-12-06T12:57:37.769Z,22
2022-12-06T12:58:53.994Z,22
2022-12-06T13:00:10.256Z,22
2022-12-06T13:01:26.477Z,16
2022-12-06T13:02:42.722Z,16
2022-12-06T13:03:58.967Z,22
2022-12-06T13:05:15.204Z,22
2022-12-06T13:06:31.436Z,22
2022-12-06T13:07:47.664Z,22
2022-12-06T13:09:03.906Z,22
2022-12-06T13:10:20.160Z,28
2022-12-06T13:11:36.411Z,22
2022-12-06T13:12:52.641Z,28
2022-12-06T13:14:09.002Z,22
2022-12-06T13:15:25.224Z,28
2022-12-06T13:16:41.481Z,22
2022-12-06T13:17:57.711Z,28
2022-12-06T13:19:13.960Z,22
2022-12-06T13:20:30.187Z,22
2022-12-06T13:21:46.432Z,28
2022-12-06T13:23:02.673Z,22
2022-12-06T13:24:18.907Z,22
2022-12-06T13:25:35.151Z,28
2022-12-06T13:26:51.400Z,22
2022-12-06T13:28:07.628Z,28
2022-12-06T13:29:23.876Z,28
2022-12-06T13:30:39.137Z,28
2022-12-06T13:31:55.367Z,22
2022-12-06T13:33:11.608Z,22
2022-12-06T13:34:27.847Z,22
2022-12-06T13:35:44.106Z,22
2022-12-06T13:37:00.340Z,22
2022-12-06T13:38:16.567Z,22
2022-12-06T13:39:32.820Z,22
2022-12-06T13:40:49.064Z,22
2022-12-06T13:42:05.282Z,22
2022-12-06T13:43:21.540Z,16
2022-12-06T13:44:37.776Z,16
2022-12-06T13:45:54.015Z,16
2022-12-06T13:47:09.288Z,16
2022-12-06T13:48:25.516Z,11
2022-12-06T13:49:41.761Z,11
2022-12-06T13:50:57.991Z,16
2022-12-06T13:52:14.232Z,11
2022-12-06T13:53:30.486Z,11
2022-12-06T13:54:46.719Z,11
2022-12-06T13:56:02.941Z,11
2022-12-06T13:57:19.183Z,5
2022-12-06T13:58:35.439Z,5
2022-12-06T13:59:51.685Z,5
2022-12-06T14:01:07.900Z,5
2022-12-06T14:02:24.162Z,5
2022-12-06T14:03:39.418Z,5
2022-12-06T14:04:55.648Z,5
2022-12-06T14:06:11.895Z,5
2022-12-06T14:07:28.142Z,5
2022-12-06T14:08:44.369Z,5
2022-12-06T14:10:00.604Z,5
2022-12-06T14:11:16.839Z,5
2022-12-06T14:12:33.090Z,5
2022-12-06T14:13:49.333Z,5
2022-12-06T14:15:05.564Z,5
2022-12-06T14:16:21.799Z,5
2022-12-06T14:17:38.058Z,5
2022-12-06T14:18:54.286Z,0
2022-12-06T14:20:09.554Z,0
2022-12-06T14:21:25.776Z,0
2022-12-06T14:22:42.022Z,0
2022-12-06T14:23:58.270Z,0
2022-12-06T14:25:14.499Z,0
2022-12-06T14:26:30.751Z,0
2022-12-06T14:27:46.999Z,0
2022-12-06T14:29:03.227Z,0
2022-12-06T14:30:19.473Z,0
2022-12-06T14:31:35.713Z,0
2022-12-06T14:32:51.960Z,0
2022-12-06T14:34:08.177Z,0
2022-12-06T14:35:24.441Z,0
2022-12-06T14:36:39.676Z,0
2022-12-06T14:37:55.916Z,0
2022-12-06T14:39:12.167Z,0
2022-12-06T14:40:28.409Z,0
2022-12-06T14:41:44.634Z,0
2022-12-06T14:43:00.892Z,0
2022-12-06T14:44:17.124Z,0
2022-12-06T14:45:33.362Z,0
2022-12-06T14:46:49.615Z,0
2022-12-06T14:48:05.847Z,0
2022-12-06T14:49:22.078Z,0
2022-12-06T14:50:38.333Z,0
2022-12-06T14:51:54.560Z,0
2022-12-06T14:53:09.820Z,0
2022-12-06T14:54:26.072Z,0
2022-12-06T14:55:42.311Z,0
2022-12-06T14:56:58.555Z,0
2022-12-06T14:58:14.778Z,0
2022-12-06T14:59:31.024Z,0
2022-12-06T15:00:47.251Z,0
2022-12-06T15:02:03.498Z,0
2022-12-06T15:03:19.745Z,0
2022-12-06T15:04:35.974Z,0
2022-12-06T15:05:52.228Z,0
2022-12-06T15:07:08.467Z,0
2022-12-06T15:08:24.716Z,0
2022-12-06T15:09:40.948Z,0
2022-12-06T15:10:56.201Z,0
2022-12-06T15:12:12.447Z,0
2022-12-06T15:13:28.682Z,0
2022-12-06T15:14:44.920Z,0
2022-12-06T15:16:01.287Z,0
2022-12-06T15:17:17.530Z,0
2022-12-06T15:18:33.766Z,0
2022-12-06T15:19:50.005Z,0
2022-12-06T15:21:06.246Z,0
2022-12-06T15:22:22.504Z,0
2022-12-06T15:23:38.736Z,0
2022-12-06T15:24:54.970Z,0
2022-12-06T15:26:11.229Z,0
2022-12-06T15:27:27.508Z,0
2022-12-06T15:28:43.000Z,0
2022-12-06T15:30:00.061Z,0
2022-12-06T15:31:16.294Z,0
2022-12-06T15:32:31.565Z,0
2022-12-06T15:33:47.851Z,0
2022-12-06T15:35:04.145Z,0
2022-12-06T15:36:20.440Z,0
2022-12-06T15:37:36.732Z,0
2022-12-06T15:38:53.011Z,0
2022-12-06T15:40:09.332Z,0
2022-12-06T15:41:25.604Z,0
2022-12-06T15:42:41.896Z,0
2022-12-06T15:43:58.205Z,0
2022-12-06T15:45:14.491Z,0
2022-12-06T15:46:30.784Z,0
2022-12-06T15:47:47.084Z,0
2022-12-06T15:49:03.501Z,0
2022-12-06T15:50:19.780Z,0
2022-12-06T15:51:36.072Z,0
2022-12-06T15:52:52.372Z,0
2022-12-06T15:54:08.683Z,0
2022-12-06T15:55:24.976Z,0
2022-12-06T15:56:41.265Z,0
2022-12-06T15:57:57.558Z,0
2022-12-06T15:59:13.865Z,0
2022-12-06T16:00:30.162Z,0
2022-12-06T16:01:46.446Z,0
2022-12-06T16:03:02.753Z,0
2022-12-06T16:04:19.050Z,0
2022-12-06T16:05:34.342Z,0
2022-12-06T16:06:50.659Z,0
2022-12-06T16:08:06.924Z,0
2022-12-06T16:09:23.225Z,0
2022-12-06T16:10:39.537Z,0
2022-12-06T16:11:55.815Z,0
2022-12-06T16:13:12.116Z,0
2022-12-06T16:14:28.411Z,0
2022-12-06T16:15:44.707Z,0
2022-12-06T16:17:01.011Z,0
2022-12-06T16:18:17.299Z,0
2022-12-06T16:19:33.593Z,0
2022-12-06T16:20:49.866Z,0
2022-12-06T16:22:05.193Z,0
2022-12-06T16:23:21.478Z,0
2022-12-06T16:24:37.786Z,0
2022-12-06T16:25:54.065Z,0
2022-12-06T16:27:10.367Z,0
2022-12-06T16:28:26.658Z,0
2022-12-06T16:29:42.957Z,0
2022-12-06T16:30:59.240Z,0
2022-12-06T16:32:15.535Z,0
2022-12-06T16:33:31.841Z,0
2022-12-06T16:34:48.141Z,0
2022-12-06T16:36:04.420Z,0
2022-12-06T16:37:20.723Z,0
2022-12-06T16:38:36.029Z,0
2022-12-06T16:39:52.327Z,0
2022-12-06T16:41:08.617Z,0
2022-12-06T16:42:24.916Z,0
2022-12-06T16:43:41.205Z,0
2022-12-06T16:44:57.000Z,0
2022-12-06T16:46:13.782Z,0
2022-12-06T16:47:30.102Z,0
2022-12-06T16:48:46.390Z,0
2022-12-06T16:50:02.694Z,0
2022-12-06T16:51:18.969Z,0
2022-12-06T16:52:35.260Z,0
2022-12-06T16:53:51.561Z,0
2022-12-06T16:55:06.876Z,0
2022-12-06T16:56:23.151Z,0
2022-12-06T16:57:39.447Z,0
2022-12-06T16:58:55.741Z,0
2022-12-06T17:00:12.034Z,0
2022-12-06T17:01:28.349Z,0
2022-12-06T17:02:44.638Z,0
2022-12-06T17:04:00.919Z,0
2022-12-06T17:05:17.217Z,0
2022-12-06T17:06:33.513Z,0
2022-12-06T17:07:49.814Z,0
2022-12-06T17:09:06.102Z,0
2022-12-06T17:10:22.395Z,0
2022-12-06T17:11:37.711Z,0
2022-12-06T17:12:53.991Z,0
2022-12-06T17:14:10.298Z,0
2022-12-06T17:15:26.578Z,0
2022-12-06T17:16:42.871Z,0
2022-12-06T17:17:59.179Z,0
2022-12-06T17:19:15.485Z,0
2022-12-06T17:20:31.765Z,0
2022-12-06T17:21:48.066Z,0
2022-12-06T17:23:04.342Z,0
2022-12-06T17:24:20.652Z,0
2022-12-06T17:25:36.951Z,0
2022-12-06T17:26:53.247Z,0
2022-12-06T17:28:08.550Z,0
2022-12-06T17:29:24.832Z,0
2022-12-06T17:30:41.148Z,0
2022-12-06T17:31:57.423Z,0
2022-12-06T17:33:13.711Z,0
2022-12-06T17:34:30.011Z,0
2022-12-06T17:35:46.317Z,0
2022-12-06T17:37:02.604Z,0
2022-12-06T17:38:18.899Z,0
2022-12-06T17:39:35.199Z,0
2022-12-06T17:40:51.502Z,0
2022-12-06T17:42:07.783Z,0
2022-12-06T17:43:24.070Z,0
2022-12-06T17:44:40.378Z,0
2022-12-06T17:45:55.681Z,0
2022-12-06T17:47:11.966Z,0
2022-12-06T17:48:28.286Z,0
2022-12-06T17:49:44.560Z,0
2022-12-06T17:51:00.856Z,0
2022-12-06T17:52:17.159Z,0
2022-12-06T17:53:33.452Z,0
2022-12-06T17:54:49.744Z,0
2022-12-06T17:56:06.033Z,0
2022-12-06T17:57:22.318Z,0
2022-12-06T17:58:38.624Z,0
2022-12-06T17:59:54.906Z,0
2022-12-06T18:01:11.228Z,0
2022-12-06T18:02:27.511Z,0
2022-12-06T18:03:42.817Z,0
2022-12-06T18:04:59.108Z,0
2022-12-06T18:06:15.401Z,0
2022-12-06T18:07:31.711Z,0
2022-12-06T18:08:47.996Z,0
2022-12-06T18:10:04.295Z,0
2022-12-06T18:11:20.582Z,0
2022-12-06T18:12:36.875Z,0
2022-12-06T18:13:53.172Z,0
2022-12-06T18:15:09.452Z,0
2022-12-06T18:16:25.759Z,0
2022-12-06T18:17:42.052Z,0
2022-12-06T18:18:58.358Z,0
2022-12-06T18:20:14.635Z,0
2022-12-06T18:21:29.960Z,0
2022-12-06T18:22:46.244Z,0
2022-12-06T18:24:02.527Z,0
2022-12-06T18:25:18.849Z,0
2022-12-06T18:26:35.127Z,0
2022-12-06T18:27:51.409Z,0
2022-12-06T18:29:07.704Z,0
2022-12-06T18:30:24.005Z,0
2022-12-06T18:31:40.315Z,0
2022-12-06T18:32:56.605Z,0